Time,TemperatureF,DewpointF,PressureIn,WindDirection,WindDirectionDegrees,WindSpeedMPH,WindSpeedGustMPH,Humidity,HourlyPrecipIn,Conditions,Clouds,dailyrainin,SoftwareType,DateUTC
2013-05-09 00:01:00,54.0,47.0,30.12,WSW,248,3.8,9.4,77,0.00,,,0.00,WUHU216HW,2013-05-09 07:01:00,
2013-05-09 00:06:00,54.0,47.0,30.12,WSW,248,3.4,6.9,77,0.00,,,0.00,WUHU216HW,2013-05-09 07:06:00,
2013-05-09 00:11:00,54.0,47.4,30.12,West,270,3.4,8.7,78,0.00,,,0.00,WUHU216HW,2013-05-09 07:11:00,
2013-05-09 00:15:00,54.0,47.4,30.12,NW,315,2.5,8.7,78,0.00,,,0.00,WUHU216HW,2013-05-09 07:15:00,
2013-05-09 00:20:00,54.0,47.4,30.12,West,270,4.0,6.9,78,0.00,,,0.00,WUHU216HW,2013-05-09 07:20:00,
2013-05-09 00:25:00,54.0,47.4,30.12,SW,225,6.0,6.9,78,0.00,,,0.00,WUHU216HW,2013-05-09 07:25:00,
2013-05-09 00:30:00,54.0,47.4,30.12,West,270,4.5,6.0,78,0.00,,,0.00,WUHU216HW,2013-05-09 07:30:00,
2013-05-09 00:35:00,54.0,47.4,30.13,West,270,4.0,7.8,78,0.00,,,0.00,WUHU216HW,2013-05-09 07:35:00,
2013-05-09 00:40:00,53.8,47.2,30.13,West,270,4.0,7.8,78,0.00,,,0.00,WUHU216HW,2013-05-09 07:40:00,
2013-05-09 00:45:00,53.8,47.2,30.12,SW,225,4.9,8.1,78,0.00,,,0.00,WUHU216HW,2013-05-09 07:45:00,
2013-05-09 00:50:00,53.6,47.0,30.12,West,270,2.7,8.1,78,0.00,,,0.00,WUHU216HW,2013-05-09 07:50:00,
2013-05-09 00:55:00,53.8,47.2,30.12,SW,225,3.1,6.3,78,0.00,,,0.00,WUHU216HW,2013-05-09 07:55:00,
2013-05-09 01:00:00,54.0,47.4,30.12,WSW,248,6.5,6.5,78,0.00,,,0.00,WUHU216HW,2013-05-09 08:00:00,
2013-05-09 01:05:00,54.0,47.4,30.12,WSW,248,4.7,6.5,78,0.00,,,0.00,WUHU216HW,2013-05-09 08:05:00,
2013-05-09 01:10:00,54.0,47.4,30.13,SW,225,4.0,6.5,78,0.00,,,0.00,WUHU216HW,2013-05-09 08:10:00,
2013-05-09 01:15:00,53.8,47.2,30.13,WSW,248,3.1,8.5,78,0.00,,,0.00,WUHU216HW,2013-05-09 08:15:00,
2013-05-09 01:20:00,53.8,47.2,30.12,SW,225,3.6,8.5,78,0.00,,,0.00,WUHU216HW,2013-05-09 08:20:00,
2013-05-09 01:25:00,53.8,47.2,30.12,SSW,203,6.3,6.9,78,0.00,,,0.00,WUHU216HW,2013-05-09 08:25:00,
2013-05-09 01:30:00,53.8,47.2,30.12,West,270,4.5,8.5,78,0.00,,,0.00,WUHU216HW,2013-05-09 08:30:00,
2013-05-09 01:35:00,53.6,47.0,30.12,SSW,203,4.0,8.5,78,0.00,,,0.00,WUHU216HW,2013-05-09 08:35:00,
2013-05-09 01:40:00,53.6,47.0,30.12,SW,225,2.7,4.5,78,0.00,,,0.00,WUHU216HW,2013-05-09 08:40:00,
2013-05-09 01:45:00,53.6,47.0,30.12,SW,225,6.9,6.9,78,0.00,,,0.00,WUHU216HW,2013-05-09 08:45:00,
2013-05-09 01:50:00,53.6,47.0,30.12,SSW,203,1.1,6.9,78,0.00,,,0.00,WUHU216HW,2013-05-09 08:50:00,
2013-05-09 01:55:00,53.6,47.0,30.12,WSW,248,6.3,6.7,78,0.00,,,0.00,WUHU216HW,2013-05-09 08:55:00,
2013-05-09 02:00:00,53.6,47.3,30.12,WNW,293,4.9,6.3,79,0.00,,,0.00,WUHU216HW,2013-05-09 09:00:00,
2013-05-09 02:05:00,53.6,47.3,30.12,WSW,248,5.6,6.3,79,0.00,,,0.00,WUHU216HW,2013-05-09 09:05:00,
2013-05-09 02:10:00,53.6,47.3,30.11,SW,225,2.7,6.3,79,0.00,,,0.00,WUHU216HW,2013-05-09 09:10:00,
2013-05-09 02:15:00,53.6,47.3,30.11,SW,225,4.7,8.3,79,0.00,,,0.00,WUHU216HW,2013-05-09 09:15:00,
2013-05-09 02:20:00,53.6,47.3,30.11,WSW,248,4.7,8.3,79,0.00,,,0.00,WUHU216HW,2013-05-09 09:20:00,
2013-05-09 02:25:00,53.5,47.2,30.11,WSW,248,2.2,6.3,79,0.00,,,0.00,WUHU216HW,2013-05-09 09:25:00,
2013-05-09 02:30:00,53.5,47.2,30.11,West,270,5.4,6.0,79,0.00,,,0.00,WUHU216HW,2013-05-09 09:30:00,
2013-05-09 02:35:00,53.5,47.2,30.11,SW,225,6.5,6.5,79,0.00,,,0.00,WUHU216HW,2013-05-09 09:35:00,
2013-05-09 02:40:00,53.5,47.2,30.11,SSW,203,6.9,9.8,79,0.00,,,0.00,WUHU216HW,2013-05-09 09:40:00,
2013-05-09 02:45:00,53.3,47.3,30.11,SW,225,6.0,9.8,80,0.00,,,0.00,WUHU216HW,2013-05-09 09:45:00,
2013-05-09 02:50:00,53.3,47.3,30.11,SW,225,4.7,8.5,80,0.00,,,0.00,WUHU216HW,2013-05-09 09:50:00,
2013-05-09 02:55:00,53.3,47.3,30.11,WSW,248,7.4,7.8,80,0.00,,,0.00,WUHU216HW,2013-05-09 09:55:00,
2013-05-09 03:00:00,53.3,47.3,30.11,West,270,5.8,7.4,80,0.00,,,0.00,WUHU216HW,2013-05-09 10:00:00,
2013-05-09 03:05:00,53.3,47.3,30.11,SW,225,5.4,7.4,80,0.00,,,0.00,WUHU216HW,2013-05-09 10:05:00,
2013-05-09 03:10:00,53.3,47.3,30.11,WSW,248,2.2,5.8,80,0.00,,,0.00,WUHU216HW,2013-05-09 10:10:00,
2013-05-09 03:15:00,53.3,47.3,30.11,North,0,0.0,5.4,80,0.00,,,0.00,WUHU216HW,2013-05-09 10:15:00,
2013-05-09 03:20:00,53.3,47.3,30.11,WSW,248,5.4,5.4,80,0.00,,,0.00,WUHU216HW,2013-05-09 10:20:00,
2013-05-09 03:25:00,53.3,47.3,30.11,SW,225,4.9,6.9,80,0.00,,,0.00,WUHU216HW,2013-05-09 10:25:00,
2013-05-09 03:30:00,53.3,47.3,30.11,WSW,248,4.7,6.9,80,0.00,,,0.00,WUHU216HW,2013-05-09 10:30:00,
2013-05-09 03:35:00,53.5,47.5,30.10,WSW,248,4.0,6.0,80,0.00,,,0.00,WUHU216HW,2013-05-09 10:35:00,
2013-05-09 03:40:00,53.3,47.3,30.10,West,270,4.7,4.7,80,0.00,,,0.00,WUHU216HW,2013-05-09 10:40:00,
2013-05-09 03:45:00,53.5,47.5,30.10,SW,225,2.9,5.4,80,0.00,,,0.00,WUHU216HW,2013-05-09 10:45:00,
2013-05-09 03:50:00,53.3,47.0,30.10,SW,225,6.5,6.5,79,0.00,,,0.00,WUHU216HW,2013-05-09 10:50:00,
2013-05-09 03:55:00,53.5,47.5,30.10,West,270,5.6,6.5,80,0.00,,,0.00,WUHU216HW,2013-05-09 10:55:00,
2013-05-09 04:00:00,53.3,47.0,30.10,West,270,2.7,8.7,79,0.00,,,0.00,WUHU216HW,2013-05-09 11:00:00,
2013-05-09 04:05:00,53.3,47.0,30.10,West,270,5.4,8.7,79,0.00,,,0.00,WUHU216HW,2013-05-09 11:05:00,
2013-05-09 04:10:00,53.3,47.3,30.10,WSW,248,6.3,6.3,80,0.00,,,0.00,WUHU216HW,2013-05-09 11:10:00,
2013-05-09 04:15:00,53.3,47.3,30.10,West,270,4.3,6.3,80,0.00,,,0.00,WUHU216HW,2013-05-09 11:15:00,
2013-05-09 04:20:00,53.3,47.3,30.10,SSW,203,2.5,6.9,80,0.00,,,0.00,WUHU216HW,2013-05-09 11:20:00,
2013-05-09 04:25:00,53.3,47.3,30.10,WSW,248,3.1,6.9,80,0.00,,,0.00,WUHU216HW,2013-05-09 11:25:00,
2013-05-09 04:30:00,53.3,47.3,30.10,SW,225,7.2,7.2,80,0.00,,,0.00,WUHU216HW,2013-05-09 11:30:00,
2013-05-09 04:35:00,53.3,47.3,30.10,WSW,248,3.4,7.2,80,0.00,,,0.00,WUHU216HW,2013-05-09 11:35:00,
2013-05-09 04:40:00,53.1,47.2,30.10,WSW,248,2.0,5.8,80,0.00,,,0.00,WUHU216HW,2013-05-09 11:40:00,
2013-05-09 04:45:00,53.1,47.2,30.10,SW,225,4.5,9.2,80,0.00,,,0.00,WUHU216HW,2013-05-09 11:45:00,
2013-05-09 04:50:00,53.1,47.2,30.09,West,270,3.4,9.2,80,0.00,,,0.00,WUHU216HW,2013-05-09 11:50:00,
2013-05-09 04:55:00,53.1,47.2,30.09,SSW,203,2.5,5.1,80,0.00,,,0.00,WUHU216HW,2013-05-09 11:55:00,
2013-05-09 05:00:00,52.9,47.0,30.09,WSW,248,4.7,5.1,80,0.00,,,0.00,WUHU216HW,2013-05-09 12:00:00,
2013-05-09 05:05:00,53.1,47.2,30.09,WSW,248,6.0,6.0,80,0.00,,,0.00,WUHU216HW,2013-05-09 12:05:00,
2013-05-09 05:10:00,53.1,47.2,30.09,SW,225,4.3,6.0,80,0.00,,,0.00,WUHU216HW,2013-05-09 12:10:00,
2013-05-09 05:15:00,53.1,47.2,30.09,SSE,158,4.7,5.1,80,0.00,,,0.00,WUHU216HW,2013-05-09 12:15:00,
2013-05-09 05:20:00,53.3,47.3,30.09,SSW,203,6.9,6.9,80,0.00,,,0.00,WUHU216HW,2013-05-09 12:20:00,
2013-05-09 05:25:00,53.3,47.3,30.09,SW,225,2.9,6.9,80,0.00,,,0.00,WUHU216HW,2013-05-09 12:25:00,
2013-05-09 05:30:00,53.3,47.3,30.09,WSW,248,2.5,6.9,80,0.00,,,0.00,WUHU216HW,2013-05-09 12:30:00,
2013-05-09 05:35:00,53.3,47.3,30.09,SW,225,2.7,3.6,80,0.00,,,0.00,WUHU216HW,2013-05-09 12:35:00,
2013-05-09 05:40:00,53.3,47.3,30.09,SW,225,6.0,6.0,80,0.00,,,0.00,WUHU216HW,2013-05-09 12:40:00,
2013-05-09 05:45:00,53.3,47.3,30.10,SW,225,2.5,6.0,80,0.00,,,0.00,WUHU216HW,2013-05-09 12:45:00,
2013-05-09 05:50:00,53.5,47.5,30.10,SW,225,5.4,5.4,80,0.00,,,0.00,WUHU216HW,2013-05-09 12:50:00,
2013-05-09 05:55:00,53.3,47.3,30.10,SW,225,7.6,7.6,80,0.00,,,0.00,WUHU216HW,2013-05-09 12:55:00,
2013-05-09 06:00:00,53.3,47.3,30.10,SSW,203,5.4,7.6,80,0.00,,,0.00,WUHU216HW,2013-05-09 13:00:00,
2013-05-09 06:05:00,53.1,47.2,30.10,SSW,203,4.9,6.0,80,0.00,,,0.00,WUHU216HW,2013-05-09 13:05:00,
2013-05-09 06:10:00,53.1,47.2,30.10,West,270,4.5,6.0,80,0.00,,,0.00,WUHU216HW,2013-05-09 13:10:00,
2013-05-09 06:15:00,53.1,47.2,30.10,WSW,248,5.4,6.3,80,0.00,,,0.00,WUHU216HW,2013-05-09 13:15:00,
2013-05-09 06:20:00,53.1,47.2,30.11,SW,225,4.5,6.3,80,0.00,,,0.00,WUHU216HW,2013-05-09 13:20:00,
2013-05-09 06:25:00,53.1,47.2,30.11,WSW,248,5.1,6.3,80,0.00,,,0.00,WUHU216HW,2013-05-09 13:25:00,
2013-05-09 06:30:00,52.9,47.0,30.11,SW,225,4.7,6.9,80,0.00,,,0.00,WUHU216HW,2013-05-09 13:30:00,
2013-05-09 06:35:00,52.9,47.3,30.11,WSW,248,2.2,6.9,81,0.00,,,0.00,WUHU216HW,2013-05-09 13:35:00,
2013-05-09 06:40:00,53.1,47.4,30.11,SW,225,6.5,6.5,81,0.00,,,0.00,WUHU216HW,2013-05-09 13:40:00,
2013-05-09 06:45:00,53.3,47.6,30.12,SSW,203,5.6,6.5,81,0.00,,,0.00,WUHU216HW,2013-05-09 13:45:00,
2013-05-09 06:50:00,53.3,47.6,30.11,North,0,0.0,5.6,81,0.00,,,0.00,WUHU216HW,2013-05-09 13:50:00,
2013-05-09 06:55:00,53.3,47.6,30.11,North,0,0.0,5.6,81,0.00,,,0.00,WUHU216HW,2013-05-09 13:55:00,
2013-05-09 07:00:00,53.5,47.5,30.11,North,0,0.0,0.0,80,0.00,,,0.00,WUHU216HW,2013-05-09 14:00:00,
2013-05-09 07:05:00,53.5,47.8,30.12,North,0,0.0,0.0,81,0.00,,,0.00,WUHU216HW,2013-05-09 14:05:00,
2013-05-09 07:10:00,53.6,47.7,30.12,North,0,0.0,0.0,80,0.00,,,0.00,WUHU216HW,2013-05-09 14:10:00,
2013-05-09 07:15:00,53.5,47.5,30.12,North,0,0.0,0.0,80,0.00,,,0.00,WUHU216HW,2013-05-09 14:15:00,
2013-05-09 07:20:00,53.5,47.5,30.12,North,0,0.0,0.0,80,0.00,,,0.00,WUHU216HW,2013-05-09 14:20:00,
2013-05-09 07:25:00,53.5,47.5,30.12,North,0,0.0,0.0,80,0.00,,,0.00,WUHU216HW,2013-05-09 14:25:00,
2013-05-09 07:30:00,53.5,47.5,30.12,North,0,0.0,0.0,80,0.00,,,0.00,WUHU216HW,2013-05-09 14:30:00,
2013-05-09 07:35:00,53.5,47.5,30.12,North,0,0.0,0.0,80,0.00,,,0.00,WUHU216HW,2013-05-09 14:35:00,
2013-05-09 07:40:00,53.5,47.5,30.12,North,0,0.0,0.0,80,0.00,,,0.00,WUHU216HW,2013-05-09 14:40:00,
2013-05-09 07:45:00,53.6,47.7,30.12,North,0,0.0,0.0,80,0.00,,,0.00,WUHU216HW,2013-05-09 14:45:00,
2013-05-09 07:50:00,53.6,47.7,30.12,North,0,0.0,0.0,80,0.00,,,0.00,WUHU216HW,2013-05-09 14:50:00,
2013-05-09 07:55:00,53.8,47.9,30.12,North,0,0.0,0.0,80,0.00,,,0.00,WUHU216HW,2013-05-09 14:55:00,
2013-05-09 08:00:00,53.8,47.9,30.12,North,0,0.0,0.0,80,0.00,,,0.00,WUHU216HW,2013-05-09 15:00:00,
2013-05-09 08:05:00,54.0,48.1,30.12,North,0,0.0,0.0,80,0.00,,,0.00,WUHU216HW,2013-05-09 15:05:00,
2013-05-09 08:10:00,54.2,48.2,30.12,North,0,0.0,0.0,80,0.00,,,0.00,WUHU216HW,2013-05-09 15:10:00,
2013-05-09 08:15:00,54.4,48.0,30.13,North,0,0.0,0.0,79,0.00,,,0.00,WUHU216HW,2013-05-09 15:15:00,
2013-05-09 08:20:00,54.5,48.2,30.13,North,0,0.0,0.0,79,0.00,,,0.00,WUHU216HW,2013-05-09 15:20:00,
2013-05-09 08:25:00,54.5,48.2,30.13,North,0,0.0,0.0,79,0.00,,,0.00,WUHU216HW,2013-05-09 15:25:00,
2013-05-09 08:30:00,54.7,48.0,30.13,North,0,0.0,0.0,78,0.00,,,0.00,WUHU216HW,2013-05-09 15:30:00,
2013-05-09 08:35:00,54.7,48.0,30.13,North,0,0.0,0.0,78,0.00,,,0.00,WUHU216HW,2013-05-09 15:35:00,
2013-05-09 08:40:00,54.7,48.0,30.13,North,0,0.0,0.0,78,0.00,,,0.00,WUHU216HW,2013-05-09 15:40:00,
2013-05-09 08:45:00,54.7,48.0,30.13,North,0,0.0,0.0,78,0.00,,,0.00,WUHU216HW,2013-05-09 15:45:00,
2013-05-09 08:50:00,54.9,48.2,30.14,North,0,0.0,0.0,78,0.00,,,0.00,WUHU216HW,2013-05-09 15:50:00,
2013-05-09 08:55:00,55.1,48.7,30.14,North,0,0.0,0.0,79,0.00,,,0.00,WUHU216HW,2013-05-09 15:55:00,
2013-05-09 09:00:00,54.9,48.2,30.14,North,0,0.0,0.0,78,0.00,,,0.00,WUHU216HW,2013-05-09 16:00:00,
2013-05-09 09:05:00,55.1,48.7,30.14,North,0,0.0,0.0,79,0.00,,,0.00,WUHU216HW,2013-05-09 16:05:00,
2013-05-09 09:10:00,55.1,48.7,30.14,North,0,0.0,0.0,79,0.00,,,0.00,WUHU216HW,2013-05-09 16:10:00,
2013-05-09 09:15:00,55.3,48.8,30.15,North,0,0.0,0.0,79,0.00,,,0.00,WUHU216HW,2013-05-09 16:15:00,
2013-05-09 09:20:00,55.4,48.6,30.15,North,0,0.0,0.0,78,0.00,,,0.00,WUHU216HW,2013-05-09 16:20:00,
2013-05-09 09:25:00,55.6,48.8,30.15,North,0,0.0,0.0,78,0.00,,,0.00,WUHU216HW,2013-05-09 16:25:00,
2013-05-09 09:30:00,56.0,49.1,30.14,North,0,0.0,0.0,78,0.00,,,0.00,WUHU216HW,2013-05-09 16:30:00,
2013-05-09 09:35:00,56.2,49.0,30.14,North,0,0.0,0.0,77,0.00,,,0.00,WUHU216HW,2013-05-09 16:35:00,
2013-05-09 09:40:00,56.5,49.3,30.14,North,0,0.0,0.0,77,0.00,,,0.00,WUHU216HW,2013-05-09 16:40:00,
2013-05-09 09:45:00,56.7,49.1,30.14,North,0,0.0,0.0,76,0.00,,,0.00,WUHU216HW,2013-05-09 16:45:00,
2013-05-09 09:50:00,57.1,49.5,30.14,North,0,0.0,0.0,76,0.00,,,0.00,WUHU216HW,2013-05-09 16:50:00,
2013-05-09 09:55:00,57.4,49.9,30.14,North,0,0.0,0.0,76,0.00,,,0.00,WUHU216HW,2013-05-09 16:55:00,
2013-05-09 10:00:00,57.8,49.9,30.14,North,0,0.0,0.0,75,0.00,,,0.00,WUHU216HW,2013-05-09 17:00:00,
2013-05-09 10:05:00,58.3,50.4,30.14,North,0,0.0,0.0,75,0.00,,,0.00,WUHU216HW,2013-05-09 17:05:00,
2013-05-09 10:10:00,58.9,50.2,30.14,North,0,0.0,0.0,73,0.00,,,0.00,WUHU216HW,2013-05-09 17:10:00,
2013-05-09 10:15:00,59.4,50.8,30.13,North,0,0.0,0.0,73,0.00,,,0.00,WUHU216HW,2013-05-09 17:15:00,
2013-05-09 10:20:00,59.8,50.8,30.13,North,0,0.0,0.0,72,0.00,,,0.00,WUHU216HW,2013-05-09 17:20:00,
2013-05-09 10:25:00,60.3,50.9,30.13,North,0,0.0,0.0,71,0.00,,,0.00,WUHU216HW,2013-05-09 17:25:00,
2013-05-09 10:30:00,60.8,51.1,30.14,North,0,0.0,0.0,70,0.00,,,0.00,WUHU216HW,2013-05-09 17:30:00,
2013-05-09 10:35:00,60.7,50.5,30.14,North,0,0.0,0.0,69,0.00,,,0.00,WUHU216HW,2013-05-09 17:35:00,
2013-05-09 10:40:00,60.8,50.7,30.14,North,0,0.0,0.0,69,0.00,,,0.00,WUHU216HW,2013-05-09 17:40:00,
2013-05-09 10:45:00,61.2,51.0,30.13,North,0,0.0,0.0,69,0.00,,,0.00,WUHU216HW,2013-05-09 17:45:00,
2013-05-09 10:50:00,61.7,51.5,30.14,North,0,0.0,0.0,69,0.00,,,0.00,WUHU216HW,2013-05-09 17:50:00,
2013-05-09 10:55:00,61.9,51.3,30.13,North,0,0.0,0.0,68,0.00,,,0.00,WUHU216HW,2013-05-09 17:55:00,
2013-05-09 11:00:00,62.3,51.6,30.14,North,0,0.0,0.0,68,0.00,,,0.00,WUHU216HW,2013-05-09 18:00:00,
2013-05-09 11:05:00,62.6,51.5,30.13,North,0,0.0,0.0,67,0.00,,,0.00,WUHU216HW,2013-05-09 18:05:00,
2013-05-09 11:10:00,62.8,51.3,30.13,North,0,0.0,0.0,66,0.00,,,0.00,WUHU216HW,2013-05-09 18:10:00,
2013-05-09 11:15:00,63.0,51.4,30.13,North,0,0.0,0.0,66,0.00,,,0.00,WUHU216HW,2013-05-09 18:15:00,
2013-05-09 11:20:00,63.4,51.4,30.13,North,0,0.0,0.0,65,0.00,,,0.00,WUHU216HW,2013-05-09 18:20:00,
2013-05-09 11:25:00,63.9,51.8,30.14,North,0,0.0,0.0,65,0.00,,,0.00,WUHU216HW,2013-05-09 18:25:00,
2013-05-09 11:30:00,64.1,52.0,30.13,North,0,0.0,0.0,65,0.00,,,0.00,WUHU216HW,2013-05-09 18:30:00,
2013-05-09 11:35:00,64.4,52.4,30.13,North,0,0.0,0.0,65,0.00,,,0.00,WUHU216HW,2013-05-09 18:35:00,
2013-05-09 11:40:00,64.8,52.3,30.12,North,0,0.0,0.0,64,0.00,,,0.00,WUHU216HW,2013-05-09 18:40:00,
2013-05-09 11:45:00,65.0,52.0,30.12,North,0,0.0,0.0,63,0.00,,,0.00,WUHU216HW,2013-05-09 18:45:00,
2013-05-09 11:50:00,65.3,52.4,30.12,North,0,0.0,0.0,63,0.00,,,0.00,WUHU216HW,2013-05-09 18:50:00,
2013-05-09 11:55:00,65.7,52.3,30.12,North,0,0.0,0.0,62,0.00,,,0.00,WUHU216HW,2013-05-09 18:55:00,
2013-05-09 12:00:00,65.7,51.9,30.12,North,0,0.0,0.0,61,0.00,,,0.00,WUHU216HW,2013-05-09 19:00:00,
2013-05-09 12:05:00,65.9,52.1,30.12,North,0,0.0,0.0,61,0.00,,,0.00,WUHU216HW,2013-05-09 19:05:00,
2013-05-09 12:10:00,66.4,52.6,30.12,North,0,0.0,0.0,61,0.00,,,0.00,WUHU216HW,2013-05-09 19:10:00,
2013-05-09 12:15:00,66.8,52.5,30.12,North,0,0.0,0.0,60,0.00,,,0.00,WUHU216HW,2013-05-09 19:15:00,
2013-05-09 12:20:00,67.3,53.0,30.12,North,0,0.0,0.0,60,0.00,,,0.00,WUHU216HW,2013-05-09 19:20:00,
2013-05-09 12:25:00,67.9,53.0,30.12,North,0,0.0,0.0,59,0.00,,,0.00,WUHU216HW,2013-05-09 19:25:00,
2013-05-09 12:30:00,67.9,52.5,30.12,North,0,0.0,0.0,58,0.00,,,0.00,WUHU216HW,2013-05-09 19:30:00,
2013-05-09 12:35:00,68.0,52.7,30.12,North,0,0.0,0.0,58,0.00,,,0.00,WUHU216HW,2013-05-09 19:35:00,
2013-05-09 12:40:00,68.4,53.0,30.12,North,0,0.0,0.0,58,0.00,,,0.00,WUHU216HW,2013-05-09 19:40:00,
2013-05-09 12:45:00,68.6,52.8,30.12,North,0,0.0,0.0,57,0.00,,,0.00,WUHU216HW,2013-05-09 19:45:00,
2013-05-09 12:50:00,68.9,53.0,30.12,North,0,0.0,0.0,57,0.00,,,0.00,WUHU216HW,2013-05-09 19:50:00,
2013-05-09 12:55:00,69.1,52.8,30.12,North,0,0.0,0.0,56,0.00,,,0.00,WUHU216HW,2013-05-09 19:55:00,
2013-05-09 13:00:00,69.1,52.2,30.12,North,0,0.0,0.0,55,0.00,,,0.00,WUHU216HW,2013-05-09 20:00:00,
2013-05-09 13:05:00,69.3,52.9,30.11,North,0,0.0,0.0,56,0.00,,,0.00,WUHU216HW,2013-05-09 20:05:00,
2013-05-09 13:10:00,70.0,53.6,30.11,North,0,0.0,0.0,56,0.00,,,0.00,WUHU216HW,2013-05-09 20:10:00,
2013-05-09 13:15:00,70.6,54.1,30.11,North,0,0.0,0.0,56,0.00,,,0.00,WUHU216HW,2013-05-09 20:15:00,
2013-05-09 13:20:00,71.3,54.7,30.11,North,0,0.0,0.0,56,0.00,,,0.00,WUHU216HW,2013-05-09 20:20:00,
2013-05-09 13:25:00,72.0,54.4,30.10,North,0,0.0,0.0,54,0.00,,,0.00,WUHU216HW,2013-05-09 20:25:00,
2013-05-09 13:30:00,72.2,53.6,30.10,North,0,0.0,0.0,52,0.00,,,0.00,WUHU216HW,2013-05-09 20:30:00,
2013-05-09 13:35:00,72.0,53.8,30.10,North,0,0.0,0.0,53,0.00,,,0.00,WUHU216HW,2013-05-09 20:35:00,
2013-05-09 13:40:00,72.0,52.8,30.10,North,0,0.0,0.0,51,0.00,,,0.00,WUHU216HW,2013-05-09 20:40:00,
2013-05-09 13:45:00,72.0,52.8,30.10,North,0,0.0,0.0,51,0.00,,,0.00,WUHU216HW,2013-05-09 20:45:00,
2013-05-09 13:50:00,72.2,53.6,30.10,North,0,0.0,0.0,52,0.00,,,0.00,WUHU216HW,2013-05-09 20:50:00,
2013-05-09 13:55:00,72.9,54.6,30.10,North,0,0.0,0.0,53,0.00,,,0.00,WUHU216HW,2013-05-09 20:55:00,
2013-05-09 14:00:00,73.6,54.4,30.09,North,0,0.0,0.0,51,0.00,,,0.00,WUHU216HW,2013-05-09 21:00:00,
2013-05-09 14:05:00,73.8,54.6,30.09,North,0,0.0,0.0,51,0.00,,,0.00,WUHU216HW,2013-05-09 21:05:00,
2013-05-09 14:10:00,74.0,54.2,30.09,North,0,0.0,0.0,50,0.00,,,0.00,WUHU216HW,2013-05-09 21:10:00,
2013-05-09 14:15:00,74.0,54.2,30.09,North,0,0.0,0.0,50,0.00,,,0.00,WUHU216HW,2013-05-09 21:15:00,
2013-05-09 14:20:00,74.2,53.7,30.09,North,0,0.0,0.0,49,0.00,,,0.00,WUHU216HW,2013-05-09 21:20:00,
2013-05-09 14:25:00,73.8,53.4,30.09,North,0,0.0,0.0,49,0.00,,,0.00,WUHU216HW,2013-05-09 21:25:00,
2013-05-09 14:30:00,73.8,53.4,30.09,North,0,0.0,0.0,49,0.00,,,0.00,WUHU216HW,2013-05-09 21:30:00,
2013-05-09 14:35:00,73.8,53.4,30.09,North,0,0.0,0.0,49,0.00,,,0.00,WUHU216HW,2013-05-09 21:35:00,
2013-05-09 14:40:00,73.4,53.0,30.09,North,0,0.0,0.0,49,0.00,,,0.00,WUHU216HW,2013-05-09 21:40:00,
2013-05-09 14:45:00,73.1,52.8,30.09,North,0,0.0,0.0,49,0.00,,,0.00,WUHU216HW,2013-05-09 21:45:00,
2013-05-09 14:50:00,73.1,53.3,30.08,North,0,0.0,0.0,50,0.00,,,0.00,WUHU216HW,2013-05-09 21:50:00,
2013-05-09 14:55:00,73.1,52.8,30.08,North,0,0.0,0.0,49,0.00,,,0.00,WUHU216HW,2013-05-09 21:55:00,
2013-05-09 15:00:00,72.9,52.6,30.08,North,0,0.0,0.0,49,0.00,,,0.00,WUHU216HW,2013-05-09 22:00:00,
2013-05-09 15:05:00,72.4,52.1,30.08,North,0,0.0,0.0,49,0.00,,,0.00,WUHU216HW,2013-05-09 22:05:00,
2013-05-09 15:10:00,72.2,52.5,30.08,North,0,0.0,0.0,50,0.00,,,0.00,WUHU216HW,2013-05-09 22:10:00,
2013-05-09 15:15:00,72.2,51.9,30.08,North,0,0.0,0.0,49,0.00,,,0.00,WUHU216HW,2013-05-09 22:15:00,
2013-05-09 15:20:00,71.8,51.6,30.07,North,0,0.0,0.0,49,0.00,,,0.00,WUHU216HW,2013-05-09 22:20:00,
2013-05-09 15:25:00,71.6,52.0,30.07,North,0,0.0,0.0,50,0.00,,,0.00,WUHU216HW,2013-05-09 22:25:00,
2013-05-09 15:30:00,71.5,51.8,30.07,North,0,0.0,0.0,50,0.00,,,0.00,WUHU216HW,2013-05-09 22:30:00,
2013-05-09 15:35:00,71.6,52.6,30.07,North,0,0.0,0.0,51,0.00,,,0.00,WUHU216HW,2013-05-09 22:35:00,
2013-05-09 15:40:00,71.5,51.8,30.07,North,0,0.0,0.0,50,0.00,,,0.00,WUHU216HW,2013-05-09 22:40:00,
2013-05-09 15:45:00,71.3,51.7,30.08,North,0,0.0,0.0,50,0.00,,,0.00,WUHU216HW,2013-05-09 22:45:00,
2013-05-09 15:50:00,70.7,51.2,30.08,North,0,0.0,0.0,50,0.00,,,0.00,WUHU216HW,2013-05-09 22:50:00,
2013-05-09 15:55:00,70.9,51.8,30.08,North,0,0.0,0.0,51,0.00,,,0.00,WUHU216HW,2013-05-09 22:55:00,
2013-05-09 16:00:00,70.9,51.8,30.08,North,0,0.0,0.0,51,0.00,,,0.00,WUHU216HW,2013-05-09 23:00:00,
2013-05-09 16:05:00,70.7,51.8,30.08,North,0,0.0,0.0,51,0.00,,,0.00,WUHU216HW,2013-05-09 23:05:00,
2013-05-09 16:10:00,70.7,51.8,30.08,North,0,0.0,0.0,51,0.00,,,0.00,WUHU216HW,2013-05-09 23:10:00,
2013-05-09 16:15:00,70.7,51.8,30.08,North,0,0.0,0.0,51,0.00,,,0.00,WUHU216HW,2013-05-09 23:15:00,
2013-05-09 16:20:00,71.1,52.0,30.07,North,0,0.0,0.0,51,0.00,,,0.00,WUHU216HW,2013-05-09 23:20:00,
2013-05-09 16:25:00,71.3,52.2,30.07,North,0,0.0,0.0,51,0.00,,,0.00,WUHU216HW,2013-05-09 23:25:00,
2013-05-09 16:30:00,70.9,51.8,30.07,North,0,0.0,0.0,51,0.00,,,0.00,WUHU216HW,2013-05-09 23:30:00,
2013-05-09 16:35:00,70.9,51.8,30.07,North,0,0.0,0.0,51,0.00,,,0.00,WUHU216HW,2013-05-09 23:35:00,
2013-05-09 16:40:00,71.1,52.0,30.07,North,0,0.0,0.0,51,0.00,,,0.00,WUHU216HW,2013-05-09 23:40:00,
2013-05-09 16:45:00,70.9,51.8,30.07,North,0,0.0,0.0,51,0.00,,,0.00,WUHU216HW,2013-05-09 23:45:00,
2013-05-09 16:50:00,70.7,51.8,30.07,North,0,0.0,0.0,51,0.00,,,0.00,WUHU216HW,2013-05-09 23:50:00,
2013-05-09 16:55:00,70.6,51.6,30.07,North,0,0.0,0.0,51,0.00,,,0.00,WUHU216HW,2013-05-09 23:55:00,
2013-05-09 17:00:00,70.9,51.8,30.07,North,0,0.0,0.0,51,0.00,,,0.00,WUHU216HW,2013-05-10 00:00:00,
2013-05-09 17:05:00,71.3,52.2,30.07,North,0,0.0,0.0,51,0.00,,,0.00,WUHU216HW,2013-05-10 00:05:00,
2013-05-09 17:10:00,71.3,51.7,30.07,North,0,0.0,0.0,50,0.00,,,0.00,WUHU216HW,2013-05-10 00:10:00,
2013-05-09 17:15:00,71.3,51.7,30.07,North,0,0.0,0.0,50,0.00,,,0.00,WUHU216HW,2013-05-10 00:15:00,
2013-05-09 17:20:00,70.9,51.8,30.07,North,0,0.0,0.0,51,0.00,,,0.00,WUHU216HW,2013-05-10 00:20:00,
2013-05-09 17:25:00,70.9,51.8,30.07,North,0,0.0,0.0,51,0.00,,,0.00,WUHU216HW,2013-05-10 00:25:00,
2013-05-09 17:30:00,70.9,51.8,30.07,North,0,0.0,0.0,51,0.00,,,0.00,WUHU216HW,2013-05-10 00:30:00,
2013-05-09 17:35:00,70.9,51.8,30.07,North,0,0.0,0.0,51,0.00,,,0.00,WUHU216HW,2013-05-10 00:35:00,
2013-05-09 17:40:00,70.9,51.8,30.07,North,0,0.0,0.0,51,0.00,,,0.00,WUHU216HW,2013-05-10 00:40:00,
2013-05-09 17:45:00,71.3,52.2,30.07,North,0,0.0,0.0,51,0.00,,,0.00,WUHU216HW,2013-05-10 00:45:00,
2013-05-09 17:50:00,71.6,52.6,30.07,North,0,0.0,0.0,51,0.00,,,0.00,WUHU216HW,2013-05-10 00:50:00,
2013-05-09 17:55:00,71.8,52.7,30.07,North,0,0.0,0.0,51,0.00,,,0.00,WUHU216HW,2013-05-10 00:55:00,
2013-05-09 18:00:00,72.0,52.4,30.07,North,0,0.0,0.0,50,0.00,,,0.00,WUHU216HW,2013-05-10 01:00:00,
2013-05-09 18:05:00,71.8,52.2,30.07,North,0,0.0,0.0,50,0.00,,,0.00,WUHU216HW,2013-05-10 01:05:00,
2013-05-09 18:10:00,71.6,52.0,30.07,North,0,0.0,0.0,50,0.00,,,0.00,WUHU216HW,2013-05-10 01:10:00,
2013-05-09 18:15:00,71.6,52.0,30.07,North,0,0.0,0.0,50,0.00,,,0.00,WUHU216HW,2013-05-10 01:15:00,
2013-05-09 18:20:00,71.5,51.8,30.07,North,0,0.0,0.0,50,0.00,,,0.00,WUHU216HW,2013-05-10 01:20:00,
2013-05-09 18:25:00,71.1,51.6,30.07,North,0,0.0,0.0,50,0.00,,,0.00,WUHU216HW,2013-05-10 01:25:00,
2013-05-09 18:30:00,70.6,51.0,30.07,North,0,0.0,0.0,50,0.00,,,0.00,WUHU216HW,2013-05-10 01:30:00,
2013-05-09 18:35:00,70.0,51.0,30.07,North,0,0.0,0.0,51,0.00,,,0.00,WUHU216HW,2013-05-10 01:35:00,
2013-05-09 18:40:00,69.8,51.0,30.07,North,0,0.0,0.0,51,0.00,,,0.00,WUHU216HW,2013-05-10 01:40:00,
2013-05-09 18:45:00,69.5,50.6,30.07,North,0,0.0,0.0,51,0.00,,,0.00,WUHU216HW,2013-05-10 01:45:00,
2013-05-09 18:50:00,69.5,50.6,30.07,North,0,0.0,0.0,51,0.00,,,0.00,WUHU216HW,2013-05-10 01:50:00,
2013-05-09 18:55:00,69.5,50.6,30.07,North,0,0.0,0.0,51,0.00,,,0.00,WUHU216HW,2013-05-10 01:55:00,
2013-05-09 18:59:00,69.5,51.1,30.08,North,0,0.0,0.0,52,0.00,,,0.00,WUHU216HW,2013-05-10 01:59:00,
2013-05-09 19:04:00,69.3,50.4,30.08,North,0,0.0,0.0,51,0.00,,,0.00,WUHU216HW,2013-05-10 02:04:00,
2013-05-09 19:09:00,68.4,49.6,30.08,North,0,0.0,0.0,51,0.00,,,0.00,WUHU216HW,2013-05-10 02:09:00,
2013-05-09 19:14:00,67.9,49.6,30.09,North,0,0.0,0.0,52,0.00,,,0.00,WUHU216HW,2013-05-10 02:14:00,
2013-05-09 19:19:00,67.3,49.6,30.09,North,0,0.0,0.0,53,0.00,,,0.00,WUHU216HW,2013-05-10 02:19:00,
2013-05-09 19:24:00,66.6,49.4,30.10,North,0,0.0,0.0,54,0.00,,,0.00,WUHU216HW,2013-05-10 02:24:00,
2013-05-09 19:29:00,66.1,49.0,30.10,North,0,0.0,0.0,54,0.00,,,0.00,WUHU216HW,2013-05-10 02:29:00,
2013-05-09 19:34:00,65.3,48.7,30.10,North,0,0.0,0.0,55,0.00,,,0.00,WUHU216HW,2013-05-10 02:34:00,
2013-05-09 19:39:00,64.8,48.6,30.10,North,0,0.0,0.0,56,0.00,,,0.00,WUHU216HW,2013-05-10 02:39:00,
2013-05-09 19:44:00,64.3,48.6,30.10,North,0,0.0,0.0,57,0.00,,,0.00,WUHU216HW,2013-05-10 02:44:00,
2013-05-09 19:49:00,63.7,48.2,30.11,North,0,0.0,0.0,57,0.00,,,0.00,WUHU216HW,2013-05-10 02:49:00,
2013-05-09 19:54:00,63.2,48.2,30.11,North,0,0.0,0.0,58,0.00,,,0.00,WUHU216HW,2013-05-10 02:54:00,
2013-05-09 19:59:00,62.6,48.2,30.11,North,0,0.0,0.0,59,0.00,,,0.00,WUHU216HW,2013-05-10 02:59:00,
2013-05-09 20:04:00,62.1,47.6,30.11,North,0,0.0,0.0,59,0.00,,,0.00,WUHU216HW,2013-05-10 03:04:00,
2013-05-09 20:09:00,61.7,47.8,30.11,North,0,0.0,0.0,60,0.00,,,0.00,WUHU216HW,2013-05-10 03:09:00,
2013-05-09 20:14:00,61.2,47.4,30.12,North,0,0.0,0.0,60,0.00,,,0.00,WUHU216HW,2013-05-10 03:14:00,
2013-05-09 20:19:00,60.7,47.3,30.11,North,0,0.0,0.0,61,0.00,,,0.00,WUHU216HW,2013-05-10 03:19:00,
2013-05-09 20:24:00,60.1,47.1,30.12,North,0,0.0,0.0,62,0.00,,,0.00,WUHU216HW,2013-05-10 03:24:00,
2013-05-09 20:29:00,59.8,46.7,30.11,North,0,0.0,0.0,62,0.00,,,0.00,WUHU216HW,2013-05-10 03:29:00,
2013-05-09 20:34:00,59.2,47.0,30.11,North,0,0.0,0.0,64,0.00,,,0.00,WUHU216HW,2013-05-10 03:34:00,
2013-05-09 20:39:00,58.7,46.5,30.11,North,0,0.0,0.0,64,0.00,,,0.00,WUHU216HW,2013-05-10 03:39:00,
2013-05-09 20:44:00,58.3,46.5,30.11,North,0,0.0,0.0,65,0.00,,,0.00,WUHU216HW,2013-05-10 03:44:00,
2013-05-09 20:49:00,58.0,46.6,30.12,North,0,0.0,0.0,66,0.00,,,0.00,WUHU216HW,2013-05-10 03:49:00,
2013-05-09 20:54:00,57.6,46.7,30.12,North,0,0.0,0.0,67,0.00,,,0.00,WUHU216HW,2013-05-10 03:54:00,
2013-05-09 20:59:00,57.2,46.7,30.12,North,0,0.0,0.0,68,0.00,,,0.00,WUHU216HW,2013-05-10 03:59:00,
2013-05-09 21:01:00,57.2,46.7,30.12,North,0,0.0,0.0,68,0.00,,,0.00,WUHU216HW,2013-05-10 04:01:00,
2013-05-09 21:06:00,56.7,46.6,30.12,North,0,0.0,0.0,69,0.00,,,0.00,WUHU216HW,2013-05-10 04:06:00,
2013-05-09 21:11:00,56.5,46.4,30.13,North,0,0.0,0.0,69,0.00,,,0.00,WUHU216HW,2013-05-10 04:11:00,
2013-05-09 21:16:00,56.3,46.7,30.14,North,0,0.0,0.0,70,0.00,,,0.00,WUHU216HW,2013-05-10 04:16:00,
2013-05-09 21:21:00,56.2,46.5,30.14,North,0,0.0,0.0,70,0.00,,,0.00,WUHU216HW,2013-05-10 04:21:00,
2013-05-09 21:26:00,55.8,46.5,30.14,North,0,0.0,0.0,71,0.00,,,0.00,WUHU216HW,2013-05-10 04:26:00,
2013-05-09 21:31:00,55.6,46.5,30.14,North,0,0.0,0.0,71,0.00,,,0.00,WUHU216HW,2013-05-10 04:31:00,
2013-05-09 21:36:00,55.4,46.3,30.15,North,0,0.0,0.0,71,0.00,,,0.00,WUHU216HW,2013-05-10 04:36:00,
2013-05-09 21:41:00,55.3,46.5,30.15,North,0,0.0,0.0,72,0.00,,,0.00,WUHU216HW,2013-05-10 04:41:00,
2013-05-09 21:46:00,54.9,46.5,30.15,North,0,0.0,0.0,73,0.00,,,0.00,WUHU216HW,2013-05-10 04:46:00,
2013-05-09 21:51:00,54.7,46.6,30.15,North,0,0.0,0.0,74,0.00,,,0.00,WUHU216HW,2013-05-10 04:51:00,
2013-05-09 21:56:00,54.5,46.1,30.15,North,0,0.0,0.0,73,0.00,,,0.00,WUHU216HW,2013-05-10 04:56:00,
2013-05-09 22:01:00,54.4,46.3,30.15,North,0,0.0,0.0,74,0.00,,,0.00,WUHU216HW,2013-05-10 05:01:00,
2013-05-09 22:06:00,54.5,46.5,30.15,North,0,0.0,0.0,74,0.00,,,0.00,WUHU216HW,2013-05-10 05:06:00,
2013-05-09 22:11:00,54.4,46.3,30.15,North,0,0.0,0.0,74,0.00,,,0.00,WUHU216HW,2013-05-10 05:11:00,
2013-05-09 22:16:00,54.4,46.3,30.16,North,0,0.0,0.0,74,0.00,,,0.00,WUHU216HW,2013-05-10 05:16:00,
2013-05-09 22:21:00,54.2,46.5,30.16,North,0,0.0,0.0,75,0.00,,,0.00,WUHU216HW,2013-05-10 05:21:00,
2013-05-09 22:26:00,54.0,45.9,30.16,North,0,0.0,0.0,74,0.00,,,0.00,WUHU216HW,2013-05-10 05:26:00,
2013-05-09 22:31:00,53.8,46.1,30.15,North,0,0.0,0.0,75,0.00,,,0.00,WUHU216HW,2013-05-10 05:31:00,
2013-05-09 22:36:00,53.6,45.9,30.15,North,0,0.0,0.0,75,0.00,,,0.00,WUHU216HW,2013-05-10 05:36:00,
2013-05-09 22:41:00,53.6,45.9,30.15,North,0,0.0,0.0,75,0.00,,,0.00,WUHU216HW,2013-05-10 05:41:00,
2013-05-09 22:46:00,53.3,45.9,30.15,North,0,0.0,0.0,76,0.00,,,0.00,WUHU216HW,2013-05-10 05:46:00,
2013-05-09 22:51:00,53.1,45.7,30.15,North,0,0.0,0.0,76,0.00,,,0.00,WUHU216HW,2013-05-10 05:51:00,
2013-05-09 22:56:00,52.9,45.5,30.15,North,0,0.0,0.0,76,0.00,,,0.00,WUHU216HW,2013-05-10 05:56:00,
2013-05-09 23:01:00,52.9,45.9,30.15,North,0,0.0,0.0,77,0.00,,,0.00,WUHU216HW,2013-05-10 06:01:00,
2013-05-09 23:06:00,52.9,45.9,30.16,North,0,0.0,0.0,77,0.00,,,0.00,WUHU216HW,2013-05-10 06:06:00,
2013-05-09 23:11:00,52.9,46.3,30.16,North,0,0.0,0.0,78,0.00,,,0.00,WUHU216HW,2013-05-10 06:11:00,
2013-05-09 23:16:00,52.7,46.1,30.16,SW,225,1.6,1.6,78,0.00,,,0.00,WUHU216HW,2013-05-10 06:16:00,
2013-05-09 23:21:00,52.7,46.1,30.16,West,270,3.4,3.4,78,0.00,,,0.00,WUHU216HW,2013-05-10 06:21:00,
2013-05-09 23:26:00,52.7,46.1,30.16,SSW,203,3.6,3.6,78,0.00,,,0.00,WUHU216HW,2013-05-10 06:26:00,
2013-05-09 23:31:00,52.7,46.1,30.16,WSW,248,3.4,5.4,78,0.00,,,0.00,WUHU216HW,2013-05-10 06:31:00,
2013-05-09 23:36:00,52.7,46.1,30.16,WSW,248,3.6,5.4,78,0.00,,,0.00,WUHU216HW,2013-05-10 06:36:00,
2013-05-09 23:40:00,52.7,46.1,30.16,North,0,0.0,3.6,78,0.00,,,0.00,WUHU216HW,2013-05-10 06:40:00,
2013-05-09 23:45:00,52.9,46.3,30.16,North,0,0.0,0.0,78,0.00,,,0.00,WUHU216HW,2013-05-10 06:45:00,
2013-05-09 23:50:00,52.9,46.3,30.17,North,0,0.0,0.0,78,0.00,,,0.00,WUHU216HW,2013-05-10 06:50:00,
2013-05-09 23:55:00,52.9,46.3,30.17,North,0,0.0,0.0,78,0.00,,,0.00,WUHU216HW,2013-05-10 06:55:00,